sensor_id;sensor_type;location;lat;lon;timestamp;temperature;humidity
21216;DHT22;10765;50.954;5.322;2023-10-13T00:01:47;18.20;99.90
21216;DHT22;10765;50.954;5.322;2023-10-13T00:04:17;18.20;99.90
21216;DHT22;10765;50.954;5.322;2023-10-13T00:06:47;18.30;99.90
21216;DHT22;10765;50.954;5.322;2023-10-13T00:09:14;18.30;99.90
21216;DHT22;10765;50.954;5.322;2023-10-13T00:11:42;18.30;99.90
21216;DHT22;10765;50.954;5.322;2023-10-13T00:14:11;18.20;99.90
21216;DHT22;10765;50.954;5.322;2023-10-13T00:16:42;18.20;99.90
21216;DHT22;10765;50.954;5.322;2023-10-13T00:19:28;18.20;99.90
21216;DHT22;10765;50.954;5.322;2023-10-13T00:22:03;18.10;99.90
21216;DHT22;10765;50.954;5.322;2023-10-13T00:24:35;18.10;99.90
21216;DHT22;10765;50.954;5.322;2023-10-13T00:27:09;18.00;99.90
21216;DHT22;10765;50.954;5.322;2023-10-13T00:29:50;17.90;99.90
21216;DHT22;10765;50.954;5.322;2023-10-13T00:32:30;17.80;99.90
21216;DHT22;10765;50.954;5.322;2023-10-13T00:34:59;17.80;99.90
21216;DHT22;10765;50.954;5.322;2023-10-13T00:37:30;17.80;99.90
21216;DHT22;10765;50.954;5.322;2023-10-13T00:40:07;17.70;99.90
21216;DHT22;10765;50.954;5.322;2023-10-13T00:42:44;17.70;99.90
21216;DHT22;10765;50.954;5.322;2023-10-13T00:45:16;17.70;99.90
21216;DHT22;10765;50.954;5.322;2023-10-13T00:47:43;17.70;99.90
21216;DHT22;10765;50.954;5.322;2023-10-13T00:50:17;17.60;99.90
21216;DHT22;10765;50.954;5.322;2023-10-13T00:52:44;17.70;99.90
21216;DHT22;10765;50.954;5.322;2023-10-13T00:55:18;17.70;99.90
21216;DHT22;10765;50.954;5.322;2023-10-13T00:57:50;17.70;99.90
21216;DHT22;10765;50.954;5.322;2023-10-13T01:00:19;17.70;99.90
21216;DHT22;10765;50.954;5.322;2023-10-13T01:02:50;17.70;99.90
21216;DHT22;10765;50.954;5.322;2023-10-13T01:05:23;17.70;99.90
21216;DHT22;10765;50.954;5.322;2023-10-13T01:07:49;17.70;99.90
21216;DHT22;10765;50.954;5.322;2023-10-13T01:10:18;17.70;99.90
21216;DHT22;10765;50.954;5.322;2023-10-13T01:12:45;17.70;99.90
21216;DHT22;10765;50.954;5.322;2023-10-13T01:15:13;17.80;99.90
21216;DHT22;10765;50.954;5.322;2023-10-13T01:17:43;17.80;99.90
21216;DHT22;10765;50.954;5.322;2023-10-13T01:20:12;17.80;99.90
21216;DHT22;10765;50.954;5.322;2023-10-13T01:22:46;17.80;99.90
21216;DHT22;10765;50.954;5.322;2023-10-13T01:25:23;17.80;99.90
21216;DHT22;10765;50.954;5.322;2023-10-13T01:27:54;17.80;99.90
21216;DHT22;10765;50.954;5.322;2023-10-13T01:30:21;17.70;99.90
21216;DHT22;10765;50.954;5.322;2023-10-13T01:32:50;17.70;99.90
21216;DHT22;10765;50.954;5.322;2023-10-13T01:35:17;17.70;99.90
21216;DHT22;10765;50.954;5.322;2023-10-13T01:37:44;17.60;99.90
21216;DHT22;10765;50.954;5.322;2023-10-13T01:40:11;17.60;99.90
21216;DHT22;10765;50.954;5.322;2023-10-13T01:42:39;17.70;99.90
21216;DHT22;10765;50.954;5.322;2023-10-13T01:45:07;17.70;99.90
21216;DHT22;10765;50.954;5.322;2023-10-13T01:47:33;17.70;99.90
21216;DHT22;10765;50.954;5.322;2023-10-13T01:50:00;17.80;99.90
21216;DHT22;10765;50.954;5.322;2023-10-13T01:52:38;17.80;99.90
21216;DHT22;10765;50.954;5.322;2023-10-13T01:55:08;17.80;99.90
21216;DHT22;10765;50.954;5.322;2023-10-13T01:57:36;17.70;99.90
21216;DHT22;10765;50.954;5.322;2023-10-13T02:00:05;17.70;99.90
21216;DHT22;10765;50.954;5.322;2023-10-13T02:02:36;17.70;99.90
21216;DHT22;10765;50.954;5.322;2023-10-13T02:05:10;17.70;99.90
21216;DHT22;10765;50.954;5.322;2023-10-13T02:07:36;17.70;99.90
21216;DHT22;10765;50.954;5.322;2023-10-13T02:10:04;17.70;99.90
21216;DHT22;10765;50.954;5.322;2023-10-13T02:12:31;17.70;99.90
21216;DHT22;10765;50.954;5.322;2023-10-13T02:15:10;17.70;99.90
21216;DHT22;10765;50.954;5.322;2023-10-13T02:17:38;17.80;99.90
21216;DHT22;10765;50.954;5.322;2023-10-13T02:20:09;17.80;99.90
21216;DHT22;10765;50.954;5.322;2023-10-13T02:22:40;17.80;99.90
21216;DHT22;10765;50.954;5.322;2023-10-13T02:25:15;17.80;99.90
21216;DHT22;10765;50.954;5.322;2023-10-13T02:27:43;17.70;99.90
21216;DHT22;10765;50.954;5.322;2023-10-13T02:30:15;17.70;99.90
21216;DHT22;10765;50.954;5.322;2023-10-13T02:32:49;17.70;99.90
21216;DHT22;10765;50.954;5.322;2023-10-13T02:35:15;17.70;99.90
21216;DHT22;10765;50.954;5.322;2023-10-13T02:37:43;17.70;99.90
21216;DHT22;10765;50.954;5.322;2023-10-13T02:40:10;17.80;99.90
21216;DHT22;10765;50.954;5.322;2023-10-13T02:42:37;17.80;99.90
21216;DHT22;10765;50.954;5.322;2023-10-13T02:45:05;17.80;99.90
21216;DHT22;10765;50.954;5.322;2023-10-13T02:47:34;17.80;99.90
21216;DHT22;10765;50.954;5.322;2023-10-13T02:50:01;17.80;99.90
21216;DHT22;10765;50.954;5.322;2023-10-13T02:52:37;17.80;99.90
21216;DHT22;10765;50.954;5.322;2023-10-13T02:55:07;17.70;99.90
21216;DHT22;10765;50.954;5.322;2023-10-13T02:57:39;17.70;99.90
21216;DHT22;10765;50.954;5.322;2023-10-13T03:00:07;17.70;99.90
21216;DHT22;10765;50.954;5.322;2023-10-13T03:02:39;17.70;99.90
21216;DHT22;10765;50.954;5.322;2023-10-13T03:05:12;17.70;99.90
21216;DHT22;10765;50.954;5.322;2023-10-13T03:07:39;17.80;99.90
21216;DHT22;10765;50.954;5.322;2023-10-13T03:10:09;17.80;99.90
21216;DHT22;10765;50.954;5.322;2023-10-13T03:12:36;17.80;99.90
21216;DHT22;10765;50.954;5.322;2023-10-13T03:15:03;17.80;99.90
21216;DHT22;10765;50.954;5.322;2023-10-13T03:17:39;17.80;99.90
21216;DHT22;10765;50.954;5.322;2023-10-13T03:20:10;17.80;99.90
21216;DHT22;10765;50.954;5.322;2023-10-13T03:22:37;17.80;99.90
21216;DHT22;10765;50.954;5.322;2023-10-13T03:25:05;17.80;99.90
21216;DHT22;10765;50.954;5.322;2023-10-13T03:27:31;17.80;99.90
21216;DHT22;10765;50.954;5.322;2023-10-13T03:30:07;17.80;99.90
21216;DHT22;10765;50.954;5.322;2023-10-13T03:32:40;17.80;99.90
21216;DHT22;10765;50.954;5.322;2023-10-13T03:35:09;17.80;99.90
21216;DHT22;10765;50.954;5.322;2023-10-13T03:37:42;17.90;99.90
21216;DHT22;10765;50.954;5.322;2023-10-13T03:40:11;17.90;99.90
21216;DHT22;10765;50.954;5.322;2023-10-13T03:43:00;17.90;99.90
21216;DHT22;10765;50.954;5.322;2023-10-13T03:45:31;17.80;99.90
21216;DHT22;10765;50.954;5.322;2023-10-13T03:48:05;17.80;99.90
21216;DHT22;10765;50.954;5.322;2023-10-13T03:50:35;17.80;99.90
21216;DHT22;10765;50.954;5.322;2023-10-13T03:53:03;17.90;99.90
21216;DHT22;10765;50.954;5.322;2023-10-13T03:55:32;17.80;99.90
21216;DHT22;10765;50.954;5.322;2023-10-13T03:58:00;17.90;99.90
21216;DHT22;10765;50.954;5.322;2023-10-13T04:00:29;17.90;99.90
21216;DHT22;10765;50.954;5.322;2023-10-13T04:02:57;17.90;99.90
21216;DHT22;10765;50.954;5.322;2023-10-13T04:05:36;17.90;99.90
21216;DHT22;10765;50.954;5.322;2023-10-13T04:08:10;17.90;99.90
21216;DHT22;10765;50.954;5.322;2023-10-13T04:10:56;17.90;99.90
21216;DHT22;10765;50.954;5.322;2023-10-13T04:13:37;17.90;99.90
21216;DHT22;10765;50.954;5.322;2023-10-13T04:16:27;17.90;99.90
21216;DHT22;10765;50.954;5.322;2023-10-13T04:19:03;18.00;99.90
21216;DHT22;10765;50.954;5.322;2023-10-13T04:21:38;18.00;99.90
21216;DHT22;10765;50.954;5.322;2023-10-13T04:24:20;18.00;99.90
21216;DHT22;10765;50.954;5.322;2023-10-13T04:26:53;18.00;99.90
21216;DHT22;10765;50.954;5.322;2023-10-13T04:29:41;18.00;99.90
21216;DHT22;10765;50.954;5.322;2023-10-13T04:32:18;18.00;99.90
21216;DHT22;10765;50.954;5.322;2023-10-13T04:34:54;18.00;99.90
21216;DHT22;10765;50.954;5.322;2023-10-13T04:37:25;18.00;99.90
21216;DHT22;10765;50.954;5.322;2023-10-13T04:39:55;18.00;99.90
21216;DHT22;10765;50.954;5.322;2023-10-13T04:42:35;18.00;99.90
21216;DHT22;10765;50.954;5.322;2023-10-13T04:45:16;18.00;99.90
21216;DHT22;10765;50.954;5.322;2023-10-13T04:48:05;18.00;99.90
21216;DHT22;10765;50.954;5.322;2023-10-13T04:50:58;18.00;99.90
21216;DHT22;10765;50.954;5.322;2023-10-13T04:53:46;18.00;99.90
21216;DHT22;10765;50.954;5.322;2023-10-13T04:56:36;18.00;99.90
21216;DHT22;10765;50.954;5.322;2023-10-13T04:59:39;18.00;99.90
21216;DHT22;10765;50.954;5.322;2023-10-13T05:02:20;18.00;99.90
21216;DHT22;10765;50.954;5.322;2023-10-13T05:05:14;18.00;99.90
21216;DHT22;10765;50.954;5.322;2023-10-13T05:07:58;18.00;99.90
21216;DHT22;10765;50.954;5.322;2023-10-13T05:10:44;18.00;99.90
21216;DHT22;10765;50.954;5.322;2023-10-13T05:13:28;18.00;99.90
21216;DHT22;10765;50.954;5.322;2023-10-13T05:16:12;18.00;99.90
21216;DHT22;10765;50.954;5.322;2023-10-13T05:18:57;18.00;99.90
21216;DHT22;10765;50.954;5.322;2023-10-13T05:21:41;18.10;99.90
21216;DHT22;10765;50.954;5.322;2023-10-13T05:24:25;18.00;99.90
21216;DHT22;10765;50.954;5.322;2023-10-13T05:27:13;18.00;99.90
21216;DHT22;10765;50.954;5.322;2023-10-13T05:29:57;18.00;99.90
21216;DHT22;10765;50.954;5.322;2023-10-13T05:32:41;18.00;99.90
21216;DHT22;10765;50.954;5.322;2023-10-13T05:35:25;18.10;99.90
21216;DHT22;10765;50.954;5.322;2023-10-13T05:38:10;18.10;99.90
21216;DHT22;10765;50.954;5.322;2023-10-13T05:40:55;18.10;99.90
21216;DHT22;10765;50.954;5.322;2023-10-13T05:43:42;18.00;99.90
21216;DHT22;10765;50.954;5.322;2023-10-13T05:46:26;17.90;99.90
21216;DHT22;10765;50.954;5.322;2023-10-13T05:49:15;17.90;99.90
21216;DHT22;10765;50.954;5.322;2023-10-13T05:52:06;17.90;99.90
21216;DHT22;10765;50.954;5.322;2023-10-13T05:54:45;18.00;99.90
21216;DHT22;10765;50.954;5.322;2023-10-13T05:57:30;18.00;99.90
21216;DHT22;10765;50.954;5.322;2023-10-13T06:00:16;18.00;99.90
21216;DHT22;10765;50.954;5.322;2023-10-13T06:03:00;18.00;99.90
21216;DHT22;10765;50.954;5.322;2023-10-13T06:05:44;18.00;99.90
21216;DHT22;10765;50.954;5.322;2023-10-13T06:08:28;17.90;99.90
21216;DHT22;10765;50.954;5.322;2023-10-13T06:11:11;17.90;99.90
21216;DHT22;10765;50.954;5.322;2023-10-13T06:13:56;18.00;99.90
21216;DHT22;10765;50.954;5.322;2023-10-13T06:16:41;18.00;99.90
21216;DHT22;10765;50.954;5.322;2023-10-13T06:19:26;18.00;99.90
21216;DHT22;10765;50.954;5.322;2023-10-13T06:22:10;18.00;99.90
21216;DHT22;10765;50.954;5.322;2023-10-13T06:24:54;18.00;99.90
21216;DHT22;10765;50.954;5.322;2023-10-13T06:27:39;18.00;99.90
21216;DHT22;10765;50.954;5.322;2023-10-13T06:30:23;18.00;99.90
21216;DHT22;10765;50.954;5.322;2023-10-13T06:32:51;17.90;99.90
21216;DHT22;10765;50.954;5.322;2023-10-13T06:35:19;17.90;99.90
21216;DHT22;10765;50.954;5.322;2023-10-13T06:37:49;17.90;99.90
21216;DHT22;10765;50.954;5.322;2023-10-13T06:40:16;18.00;99.90
21216;DHT22;10765;50.954;5.322;2023-10-13T06:42:51;18.10;99.90
21216;DHT22;10765;50.954;5.322;2023-10-13T06:45:19;18.20;99.90
21216;DHT22;10765;50.954;5.322;2023-10-13T06:47:47;18.20;99.90
21216;DHT22;10765;50.954;5.322;2023-10-13T06:50:21;18.30;99.90
21216;DHT22;10765;50.954;5.322;2023-10-13T06:52:50;18.30;99.90
21216;DHT22;10765;50.954;5.322;2023-10-13T06:55:20;18.40;99.90
21216;DHT22;10765;50.954;5.322;2023-10-13T06:57:53;18.40;99.90
21216;DHT22;10765;50.954;5.322;2023-10-13T07:00:20;18.40;99.90
21216;DHT22;10765;50.954;5.322;2023-10-13T07:02:55;18.50;99.90
21216;DHT22;10765;50.954;5.322;2023-10-13T07:05:35;18.70;99.90
21216;DHT22;10765;50.954;5.322;2023-10-13T07:08:04;18.70;99.90
21216;DHT22;10765;50.954;5.322;2023-10-13T07:10:32;18.80;99.90
21216;DHT22;10765;50.954;5.322;2023-10-13T07:13:10;18.90;99.90
21216;DHT22;10765;50.954;5.322;2023-10-13T07:15:39;19.00;99.90
21216;DHT22;10765;50.954;5.322;2023-10-13T07:18:11;19.10;99.90
21216;DHT22;10765;50.954;5.322;2023-10-13T07:20:40;19.30;99.90
21216;DHT22;10765;50.954;5.322;2023-10-13T07:23:11;19.40;99.90
21216;DHT22;10765;50.954;5.322;2023-10-13T07:25:51;19.70;99.90
21216;DHT22;10765;50.954;5.322;2023-10-13T07:28:19;20.20;99.90
21216;DHT22;10765;50.954;5.322;2023-10-13T07:30:46;20.60;99.90
21216;DHT22;10765;50.954;5.322;2023-10-13T07:33:36;20.80;99.90
21216;DHT22;10765;50.954;5.322;2023-10-13T07:36:06;21.10;99.90
21216;DHT22;10765;50.954;5.322;2023-10-13T07:38:41;21.50;99.90
21216;DHT22;10765;50.954;5.322;2023-10-13T07:41:09;21.90;1.00
21216;DHT22;10765;50.954;5.322;2023-10-13T07:43:41;22.20;1.00
21216;DHT22;10765;50.954;5.322;2023-10-13T07:46:08;22.30;99.90
21216;DHT22;10765;50.954;5.322;2023-10-13T07:48:36;22.10;99.90
21216;DHT22;10765;50.954;5.322;2023-10-13T07:51:07;21.90;99.90
21216;DHT22;10765;50.954;5.322;2023-10-13T07:53:37;21.80;99.90
21216;DHT22;10765;50.954;5.322;2023-10-13T07:56:06;21.60;99.90
21216;DHT22;10765;50.954;5.322;2023-10-13T07:58:34;21.50;99.90
21216;DHT22;10765;50.954;5.322;2023-10-13T08:01:13;21.90;99.90
21216;DHT22;10765;50.954;5.322;2023-10-13T08:03:44;22.60;1.00
21216;DHT22;10765;50.954;5.322;2023-10-13T08:06:14;23.20;1.00
21216;DHT22;10765;50.954;5.322;2023-10-13T08:08:51;23.30;1.00
21216;DHT22;10765;50.954;5.322;2023-10-13T08:11:22;23.50;1.00
21216;DHT22;10765;50.954;5.322;2023-10-13T08:13:57;23.80;1.00
21216;DHT22;10765;50.954;5.322;2023-10-13T08:16:26;24.20;1.00
21216;DHT22;10765;50.954;5.322;2023-10-13T08:19:12;23.80;1.00
21216;DHT22;10765;50.954;5.322;2023-10-13T08:21:43;23.50;1.00
21216;DHT22;10765;50.954;5.322;2023-10-13T08:24:15;24.20;1.00
21216;DHT22;10765;50.954;5.322;2023-10-13T08:26:50;24.60;1.00
21216;DHT22;10765;50.954;5.322;2023-10-13T08:29:34;24.50;1.00
21216;DHT22;10765;50.954;5.322;2023-10-13T08:32:40;24.60;1.00
21216;DHT22;10765;50.954;5.322;2023-10-13T08:35:20;25.10;1.00
21216;DHT22;10765;50.954;5.322;2023-10-13T08:38:02;24.60;1.00
21216;DHT22;10765;50.954;5.322;2023-10-13T08:40:44;23.90;1.00
21216;DHT22;10765;50.954;5.322;2023-10-13T08:43:32;24.50;1.00
21216;DHT22;10765;50.954;5.322;2023-10-13T08:46:09;25.30;1.00
21216;DHT22;10765;50.954;5.322;2023-10-13T08:48:54;26.40;1.00
21216;DHT22;10765;50.954;5.322;2023-10-13T08:51:36;25.30;99.90
21216;DHT22;10765;50.954;5.322;2023-10-13T08:54:17;24.30;1.00
21216;DHT22;10765;50.954;5.322;2023-10-13T08:57:00;24.00;1.00
21216;DHT22;10765;50.954;5.322;2023-10-13T08:59:45;23.80;1.00
21216;DHT22;10765;50.954;5.322;2023-10-13T09:02:20;23.90;1.00
21216;DHT22;10765;50.954;5.322;2023-10-13T09:04:48;23.90;1.00
21216;DHT22;10765;50.954;5.322;2023-10-13T09:07:25;23.60;1.00
21216;DHT22;10765;50.954;5.322;2023-10-13T09:09:52;23.50;1.00
21216;DHT22;10765;50.954;5.322;2023-10-13T09:12:37;23.60;1.00
21216;DHT22;10765;50.954;5.322;2023-10-13T09:15:06;23.80;1.00
21216;DHT22;10765;50.954;5.322;2023-10-13T09:17:46;23.90;1.00
21216;DHT22;10765;50.954;5.322;2023-10-13T09:20:28;24.20;1.00
21216;DHT22;10765;50.954;5.322;2023-10-13T09:23:09;24.90;1.00
21216;DHT22;10765;50.954;5.322;2023-10-13T09:25:40;25.20;1.00
21216;DHT22;10765;50.954;5.322;2023-10-13T09:28:20;25.30;1.00
21216;DHT22;10765;50.954;5.322;2023-10-13T09:30:48;25.00;99.90
21216;DHT22;10765;50.954;5.322;2023-10-13T09:33:20;24.50;1.00
21216;DHT22;10765;50.954;5.322;2023-10-13T09:35:54;24.00;1.00
21216;DHT22;10765;50.954;5.322;2023-10-13T09:38:25;23.80;1.00
21216;DHT22;10765;50.954;5.322;2023-10-13T09:40:53;23.80;1.00
21216;DHT22;10765;50.954;5.322;2023-10-13T09:43:23;24.40;1.00
21216;DHT22;10765;50.954;5.322;2023-10-13T09:45:51;25.00;1.00
21216;DHT22;10765;50.954;5.322;2023-10-13T09:48:34;26.40;99.90
21216;DHT22;10765;50.954;5.322;2023-10-13T09:51:02;26.30;99.90
21216;DHT22;10765;50.954;5.322;2023-10-13T09:53:34;26.20;99.90
21216;DHT22;10765;50.954;5.322;2023-10-13T09:56:09;25.10;99.90
21216;DHT22;10765;50.954;5.322;2023-10-13T09:58:48;24.50;99.90
21216;DHT22;10765;50.954;5.322;2023-10-13T10:01:19;24.20;1.00
21216;DHT22;10765;50.954;5.322;2023-10-13T10:04:07;24.10;1.00
21216;DHT22;10765;50.954;5.322;2023-10-13T10:06:34;23.90;1.00
21216;DHT22;10765;50.954;5.322;2023-10-13T10:09:10;23.90;1.00
21216;DHT22;10765;50.954;5.322;2023-10-13T10:12:04;24.20;1.00
21216;DHT22;10765;50.954;5.322;2023-10-13T10:15:01;24.00;1.00
21216;DHT22;10765;50.954;5.322;2023-10-13T10:17:38;23.80;1.00
21216;DHT22;10765;50.954;5.322;2023-10-13T10:20:06;23.70;1.00
21216;DHT22;10765;50.954;5.322;2023-10-13T10:22:41;23.70;1.00
21216;DHT22;10765;50.954;5.322;2023-10-13T10:25:13;23.70;1.00
21216;DHT22;10765;50.954;5.322;2023-10-13T10:27:56;23.80;1.00
21216;DHT22;10765;50.954;5.322;2023-10-13T10:30:27;23.60;1.00
21216;DHT22;10765;50.954;5.322;2023-10-13T10:32:55;23.60;1.00
21216;DHT22;10765;50.954;5.322;2023-10-13T10:35:25;23.60;1.00
21216;DHT22;10765;50.954;5.322;2023-10-13T10:37:56;23.70;1.00
21216;DHT22;10765;50.954;5.322;2023-10-13T10:40:48;24.00;1.00
21216;DHT22;10765;50.954;5.322;2023-10-13T10:43:19;24.60;1.00
21216;DHT22;10765;50.954;5.322;2023-10-13T10:45:46;25.10;1.00
21216;DHT22;10765;50.954;5.322;2023-10-13T10:48:16;25.30;1.00
21216;DHT22;10765;50.954;5.322;2023-10-13T10:50:51;25.60;99.90
21216;DHT22;10765;50.954;5.322;2023-10-13T10:53:20;25.50;99.90
21216;DHT22;10765;50.954;5.322;2023-10-13T10:56:04;25.60;99.90
21216;DHT22;10765;50.954;5.322;2023-10-13T10:58:35;25.40;99.90
21216;DHT22;10765;50.954;5.322;2023-10-13T11:01:09;25.30;99.90
21216;DHT22;10765;50.954;5.322;2023-10-13T11:03:38;25.10;99.90
21216;DHT22;10765;50.954;5.322;2023-10-13T11:06:11;25.30;99.90
21216;DHT22;10765;50.954;5.322;2023-10-13T11:08:42;25.30;99.90
21216;DHT22;10765;50.954;5.322;2023-10-13T11:11:27;25.20;99.90
21216;DHT22;10765;50.954;5.322;2023-10-13T11:13:57;25.20;99.90
21216;DHT22;10765;50.954;5.322;2023-10-13T11:16:45;24.90;99.90
21216;DHT22;10765;50.954;5.322;2023-10-13T11:19:16;24.70;1.00
21216;DHT22;10765;50.954;5.322;2023-10-13T11:21:46;24.50;1.00
21216;DHT22;10765;50.954;5.322;2023-10-13T11:24:13;24.40;1.00
21216;DHT22;10765;50.954;5.322;2023-10-13T11:26:43;24.30;1.00
21216;DHT22;10765;50.954;5.322;2023-10-13T11:29:16;24.40;1.00
21216;DHT22;10765;50.954;5.322;2023-10-13T11:31:46;24.30;1.00
21216;DHT22;10765;50.954;5.322;2023-10-13T11:34:19;24.30;1.00
21216;DHT22;10765;50.954;5.322;2023-10-13T11:36:46;24.30;1.00
21216;DHT22;10765;50.954;5.322;2023-10-13T11:39:13;24.70;1.00
21216;DHT22;10765;50.954;5.322;2023-10-13T11:41:48;25.50;99.90
21216;DHT22;10765;50.954;5.322;2023-10-13T11:44:21;26.20;99.90
21216;DHT22;10765;50.954;5.322;2023-10-13T11:46:56;26.70;99.90
21216;DHT22;10765;50.954;5.322;2023-10-13T11:49:32;26.80;99.90
21216;DHT22;10765;50.954;5.322;2023-10-13T11:52:03;26.70;99.90
21216;DHT22;10765;50.954;5.322;2023-10-13T11:54:42;26.40;99.90
21216;DHT22;10765;50.954;5.322;2023-10-13T11:57:09;25.90;99.90
21216;DHT22;10765;50.954;5.322;2023-10-13T11:59:37;25.60;99.90
21216;DHT22;10765;50.954;5.322;2023-10-13T12:02:12;25.00;99.90
21216;DHT22;10765;50.954;5.322;2023-10-13T12:04:56;24.50;99.90
21216;DHT22;10765;50.954;5.322;2023-10-13T12:07:25;24.30;99.90
21216;DHT22;10765;50.954;5.322;2023-10-13T12:10:10;24.30;1.00
21216;DHT22;10765;50.954;5.322;2023-10-13T12:12:42;24.40;99.90
21216;DHT22;10765;50.954;5.322;2023-10-13T12:15:13;24.60;1.00
21216;DHT22;10765;50.954;5.322;2023-10-13T12:17:51;24.50;99.90
21216;DHT22;10765;50.954;5.322;2023-10-13T12:20:18;24.60;1.00
21216;DHT22;10765;50.954;5.322;2023-10-13T12:22:58;24.70;99.90
21216;DHT22;10765;50.954;5.322;2023-10-13T12:25:37;25.40;99.90
21216;DHT22;10765;50.954;5.322;2023-10-13T12:28:21;26.30;99.90
21216;DHT22;10765;50.954;5.322;2023-10-13T12:30:50;27.50;99.90
21216;DHT22;10765;50.954;5.322;2023-10-13T12:33:18;28.00;99.90
21216;DHT22;10765;50.954;5.322;2023-10-13T12:36:00;27.60;99.90
21216;DHT22;10765;50.954;5.322;2023-10-13T12:38:35;27.60;99.90
21216;DHT22;10765;50.954;5.322;2023-10-13T12:41:20;30.10;99.90
21216;DHT22;10765;50.954;5.322;2023-10-13T12:44:05;31.10;99.90
21216;DHT22;10765;50.954;5.322;2023-10-13T12:46:52;28.90;99.90
21216;DHT22;10765;50.954;5.322;2023-10-13T12:49:36;27.50;99.90
21216;DHT22;10765;50.954;5.322;2023-10-13T12:52:17;26.60;99.90
21216;DHT22;10765;50.954;5.322;2023-10-13T12:54:46;26.20;99.90
21216;DHT22;10765;50.954;5.322;2023-10-13T12:57:24;25.60;99.90
21216;DHT22;10765;50.954;5.322;2023-10-13T12:59:51;25.30;99.90
21216;DHT22;10765;50.954;5.322;2023-10-13T13:02:20;25.00;99.90
21216;DHT22;10765;50.954;5.322;2023-10-13T13:04:50;24.70;99.90
21216;DHT22;10765;50.954;5.322;2023-10-13T13:07:22;24.50;99.90
21216;DHT22;10765;50.954;5.322;2023-10-13T13:09:54;24.30;99.90
21216;DHT22;10765;50.954;5.322;2023-10-13T13:12:24;24.20;99.90
21216;DHT22;10765;50.954;5.322;2023-10-13T13:14:51;24.00;99.90
21216;DHT22;10765;50.954;5.322;2023-10-13T13:17:22;24.00;99.90
21216;DHT22;10765;50.954;5.322;2023-10-13T13:19:48;24.10;99.90
21216;DHT22;10765;50.954;5.322;2023-10-13T13:22:15;24.10;1.00
21216;DHT22;10765;50.954;5.322;2023-10-13T13:24:44;23.90;1.00
21216;DHT22;10765;50.954;5.322;2023-10-13T13:27:13;23.90;1.00
21216;DHT22;10765;50.954;5.322;2023-10-13T13:29:40;23.80;1.00
21216;DHT22;10765;50.954;5.322;2023-10-13T13:32:07;23.70;1.00
21216;DHT22;10765;50.954;5.322;2023-10-13T13:34:44;23.50;1.00
21216;DHT22;10765;50.954;5.322;2023-10-13T13:37:20;23.50;1.00
21216;DHT22;10765;50.954;5.322;2023-10-13T13:39:46;23.50;1.00
21216;DHT22;10765;50.954;5.322;2023-10-13T13:42:13;23.50;1.00
21216;DHT22;10765;50.954;5.322;2023-10-13T13:44:43;23.30;1.00
21216;DHT22;10765;50.954;5.322;2023-10-13T13:47:12;23.10;1.00
21216;DHT22;10765;50.954;5.322;2023-10-13T13:49:39;23.00;1.00
21216;DHT22;10765;50.954;5.322;2023-10-13T13:52:08;23.20;1.00
21216;DHT22;10765;50.954;5.322;2023-10-13T13:54:35;23.30;1.00
21216;DHT22;10765;50.954;5.322;2023-10-13T13:57:06;23.20;1.00
21216;DHT22;10765;50.954;5.322;2023-10-13T13:59:33;23.20;1.00
21216;DHT22;10765;50.954;5.322;2023-10-13T14:02:01;23.30;1.00
21216;DHT22;10765;50.954;5.322;2023-10-13T14:04:45;23.10;1.00
21216;DHT22;10765;50.954;5.322;2023-10-13T14:07:13;23.10;1.00
21216;DHT22;10765;50.954;5.322;2023-10-13T14:09:40;23.10;1.00
21216;DHT22;10765;50.954;5.322;2023-10-13T14:12:09;22.80;1.00
21216;DHT22;10765;50.954;5.322;2023-10-13T14:14:54;22.80;1.00
21216;DHT22;10765;50.954;5.322;2023-10-13T14:17:22;22.80;1.00
21216;DHT22;10765;50.954;5.322;2023-10-13T14:19:55;22.80;1.00
21216;DHT22;10765;50.954;5.322;2023-10-13T14:22:23;22.90;1.00
21216;DHT22;10765;50.954;5.322;2023-10-13T14:24:52;22.90;1.00
21216;DHT22;10765;50.954;5.322;2023-10-13T14:27:21;23.00;1.00
21216;DHT22;10765;50.954;5.322;2023-10-13T14:29:49;22.80;1.00
21216;DHT22;10765;50.954;5.322;2023-10-13T14:32:19;22.80;1.00
21216;DHT22;10765;50.954;5.322;2023-10-13T14:34:50;22.60;1.00
21216;DHT22;10765;50.954;5.322;2023-10-13T14:37:23;22.70;1.00
21216;DHT22;10765;50.954;5.322;2023-10-13T14:39:56;22.70;1.00
21216;DHT22;10765;50.954;5.322;2023-10-13T14:42:24;22.60;1.00
21216;DHT22;10765;50.954;5.322;2023-10-13T14:44:51;22.60;1.00
21216;DHT22;10765;50.954;5.322;2023-10-13T14:47:22;22.70;1.00
21216;DHT22;10765;50.954;5.322;2023-10-13T14:49:51;22.80;1.00
21216;DHT22;10765;50.954;5.322;2023-10-13T14:52:20;22.80;1.00
21216;DHT22;10765;50.954;5.322;2023-10-13T14:54:49;22.60;1.00
21216;DHT22;10765;50.954;5.322;2023-10-13T14:57:21;22.40;1.00
21216;DHT22;10765;50.954;5.322;2023-10-13T14:59:51;22.50;1.00
21216;DHT22;10765;50.954;5.322;2023-10-13T15:02:18;22.60;1.00
21216;DHT22;10765;50.954;5.322;2023-10-13T15:04:45;22.60;1.00
21216;DHT22;10765;50.954;5.322;2023-10-13T15:07:14;22.50;1.00
21216;DHT22;10765;50.954;5.322;2023-10-13T15:09:42;22.40;1.00
21216;DHT22;10765;50.954;5.322;2023-10-13T15:12:11;22.40;1.00
21216;DHT22;10765;50.954;5.322;2023-10-13T15:14:38;22.40;1.00
21216;DHT22;10765;50.954;5.322;2023-10-13T15:17:05;22.20;1.00
21216;DHT22;10765;50.954;5.322;2023-10-13T15:19:32;22.20;1.00
21216;DHT22;10765;50.954;5.322;2023-10-13T15:22:02;22.10;1.00
21216;DHT22;10765;50.954;5.322;2023-10-13T15:24:32;22.10;1.00
21216;DHT22;10765;50.954;5.322;2023-10-13T15:27:02;22.00;1.00
21216;DHT22;10765;50.954;5.322;2023-10-13T15:29:35;22.00;1.00
21216;DHT22;10765;50.954;5.322;2023-10-13T15:32:02;22.00;1.00
21216;DHT22;10765;50.954;5.322;2023-10-13T15:34:46;21.80;1.00
21216;DHT22;10765;50.954;5.322;2023-10-13T15:37:13;21.60;1.00
21216;DHT22;10765;50.954;5.322;2023-10-13T15:39:40;21.50;1.00
21216;DHT22;10765;50.954;5.322;2023-10-13T15:42:07;21.50;1.00
21216;DHT22;10765;50.954;5.322;2023-10-13T15:44:36;21.50;1.00
21216;DHT22;10765;50.954;5.322;2023-10-13T15:47:03;21.50;1.00
21216;DHT22;10765;50.954;5.322;2023-10-13T15:49:30;21.50;1.00
21216;DHT22;10765;50.954;5.322;2023-10-13T15:51:59;21.50;1.00
21216;DHT22;10765;50.954;5.322;2023-10-13T15:54:26;21.50;1.00
21216;DHT22;10765;50.954;5.322;2023-10-13T15:56:53;21.50;1.00
21216;DHT22;10765;50.954;5.322;2023-10-13T15:59:20;21.10;1.00
21216;DHT22;10765;50.954;5.322;2023-10-13T16:01:50;20.60;1.00
21216;DHT22;10765;50.954;5.322;2023-10-13T16:04:23;20.20;1.00
21216;DHT22;10765;50.954;5.322;2023-10-13T16:06:49;19.90;8.00
21216;DHT22;10765;50.954;5.322;2023-10-13T16:09:16;19.70;99.90
21216;DHT22;10765;50.954;5.322;2023-10-13T16:11:49;19.50;1.00
21216;DHT22;10765;50.954;5.322;2023-10-13T16:14:16;19.30;1.00
21216;DHT22;10765;50.954;5.322;2023-10-13T16:16:45;19.30;99.90
21216;DHT22;10765;50.954;5.322;2023-10-13T16:19:14;19.40;99.90